Time;durP1;ratioP1;P1;durP2;ratioP2;P2;SDS_P1;SDS_P2;PMS_P1;PMS_P2;Temp;Humidity;BMP_temperature;BMP_pressure;BME280_temperature;BME280_humidity;BME280_pressure;Samples;Min_cycle;Max_cycle;Signal;HPM_P1;HPM_P2
2022/06/26 00:01:18;;;;;;;9.20;4.88;;;;;;;;;;5054776;28;20399;-61
2022/06/26 00:03:46;;;;;;;11.32;4.70;;;;;;;;;;5054873;28;20037;-61
2022/06/26 00:06:13;;;;;;;7.88;4.20;;;;;;;;;;5054845;28;20045;-61
2022/06/26 00:08:47;;;;;;;8.23;3.80;;;;;;;;;;5054759;28;20483;-61
2022/06/26 00:11:15;;;;;;;12.43;4.03;;;;;;;;;;5054758;28;20045;-61
2022/06/26 00:13:42;;;;;;;8.05;3.80;;;;;;;;;;5054711;28;20044;-61
2022/06/26 00:16:10;;;;;;;7.57;4.13;;;;;;;;;;5054641;28;20045;-61
2022/06/26 00:18:37;;;;;;;9.00;4.15;;;;;;;;;;5054677;28;20107;-61
2022/06/26 00:21:05;;;;;;;10.38;4.40;;;;;;;;;;5036692;28;20045;-61
2022/06/26 00:23:34;;;;;;;11.80;4.38;;;;;;;;;;5054804;28;20098;-61
2022/06/26 00:26:02;;;;;;;12.52;6.15;;;;;;;;;;5054781;28;20037;-61
2022/06/26 00:28:30;;;;;;;13.70;4.32;;;;;;;;;;5054476;28;20369;-61
2022/06/26 00:30:58;;;;;;;9.40;5.05;;;;;;;;;;5036571;28;20058;-61
2022/06/26 00:33:25;;;;;;;18.98;10.65;;;;;;;;;;5036519;28;20099;-61
2022/06/26 00:35:53;;;;;;;18.55;11.50;;;;;;;;;;5036796;28;20557;-61
2022/06/26 00:38:20;;;;;;;17.80;8.02;;;;;;;;;;5036291;28;20048;-61
2022/06/26 00:40:48;;;;;;;9.73;4.43;;;;;;;;;;5054163;28;20084;-61
2022/06/26 00:43:16;;;;;;;10.07;6.75;;;;;;;;;;5036299;28;20052;-61
2022/06/26 00:45:43;;;;;;;12.93;8.10;;;;;;;;;;5054312;28;20075;-61
2022/06/26 00:48:10;;;;;;;18.75;13.25;;;;;;;;;;5054176;28;20048;-61
2022/06/26 00:50:38;;;;;;;12.23;4.50;;;;;;;;;;5054131;28;20049;-61
2022/06/26 00:53:06;;;;;;;10.88;4.90;;;;;;;;;;5036064;28;20494;-61
2022/06/26 00:55:33;;;;;;;9.70;4.35;;;;;;;;;;5054005;28;20459;-61
2022/06/26 00:58:01;;;;;;;11.43;6.43;;;;;;;;;;5035221;28;20045;-61
2022/06/26 01:00:29;;;;;;;13.93;7.40;;;;;;;;;;5019608;28;20133;-61
2022/06/26 01:02:57;;;;;;;12.05;5.13;;;;;;;;;;5036155;28;20041;-61
2022/06/26 01:05:25;;;;;;;12.48;4.22;;;;;;;;;;5035823;28;20045;-61
2022/06/26 01:07:52;;;;;;;5.85;4.30;;;;;;;;;;5035914;28;20072;-61
2022/06/26 01:10:20;;;;;;;9.43;3.90;;;;;;;;;;5053752;28;20511;-61
2022/06/26 01:12:47;;;;;;;11.18;4.22;;;;;;;;;;5035825;28;20135;-61
2022/06/26 01:15:15;;;;;;;14.82;5.18;;;;;;;;;;5035813;28;20064;-61
2022/06/26 01:17:43;;;;;;;9.52;4.40;;;;;;;;;;5035582;28;20051;-61
2022/06/26 01:20:13;;;;;;;8.02;4.10;;;;;;;;;;5035610;28;20131;-61
2022/06/26 01:22:41;;;;;;;6.38;5.03;;;;;;;;;;5035891;28;20132;-61
2022/06/26 01:25:09;;;;;;;10.48;4.32;;;;;;;;;;5035519;28;20064;-61
2022/06/26 01:27:41;;;;;;;9.57;3.90;;;;;;;;;;5035519;28;20049;-61
2022/06/26 01:30:10;;;;;;;11.15;7.70;;;;;;;;;;5035372;28;20064;-61
2022/06/26 01:32:37;;;;;;;11.40;4.20;;;;;;;;;;5053366;28;20128;-61
2022/06/26 01:35:05;;;;;;;12.43;6.75;;;;;;;;;;5053220;28;20120;-61
2022/06/26 01:37:34;;;;;;;11.13;4.68;;;;;;;;;;5035163;28;20037;-61
2022/06/26 01:40:02;;;;;;;8.93;4.88;;;;;;;;;;5035361;28;20049;-61
2022/06/26 01:42:30;;;;;;;9.95;3.90;;;;;;;;;;5035472;28;20095;-61
2022/06/26 01:44:57;;;;;;;10.38;4.03;;;;;;;;;;5035078;28;20049;-61
2022/06/26 01:47:25;;;;;;;5.45;4.15;;;;;;;;;;5035164;28;20132;-61
2022/06/26 01:49:52;;;;;;;11.45;6.65;;;;;;;;;;5035150;28;20510;-61
2022/06/26 01:52:20;;;;;;;6.75;4.18;;;;;;;;;;5034512;28;20041;-61
2022/06/26 01:54:49;;;;;;;10.05;3.70;;;;;;;;;;5034960;28;20572;-61
2022/06/26 01:57:17;;;;;;;5.35;3.53;;;;;;;;;;5034994;28;20110;-61
2022/06/26 01:59:48;;;;;;;8.10;4.15;;;;;;;;;;5034794;28;20036;-61
2022/06/26 02:02:20;;;;;;;5.97;3.83;;;;;;;;;;5034857;28;20135;-61
2022/06/26 02:04:47;;;;;;;6.55;3.90;;;;;;;;;;5034845;28;20072;-61
2022/06/26 02:07:15;;;;;;;6.78;4.40;;;;;;;;;;5034699;28;20103;-61
2022/06/26 02:15:18;;;;;;;8.27;4.28;;;;;;;;;;5034800;28;20049;-61
2022/06/26 02:17:46;;;;;;;7.80;4.35;;;;;;;;;;5034637;28;20064;-61
2022/06/26 02:20:14;;;;;;;8.63;4.07;;;;;;;;;;5034570;28;20048;-61
2022/06/26 02:22:41;;;;;;;8.88;4.03;;;;;;;;;;5034604;28;20044;-61
2022/06/26 02:25:09;;;;;;;10.13;4.78;;;;;;;;;;5052542;28;20041;-62
2022/06/26 02:27:37;;;;;;;10.90;4.47;;;;;;;;;;5034422;28;20491;-62
2022/06/26 02:30:05;;;;;;;9.30;4.10;;;;;;;;;;5034754;28;20045;-62
2022/06/26 02:32:33;;;;;;;10.25;3.90;;;;;;;;;;5034311;28;20068;-62
2022/06/26 02:35:00;;;;;;;9.77;4.25;;;;;;;;;;5034580;28;20045;-62
2022/06/26 02:37:28;;;;;;;9.32;4.72;;;;;;;;;;5034433;28;20037;-62
2022/06/26 02:39:55;;;;;;;8.32;5.38;;;;;;;;;;5034358;28;20052;-62
2022/06/26 02:42:23;;;;;;;8.45;4.55;;;;;;;;;;5034523;28;20037;-62
2022/06/26 02:44:51;;;;;;;9.27;4.88;;;;;;;;;;5034585;28;20045;-62
2022/06/26 02:47:18;;;;;;;8.70;4.43;;;;;;;;;;5034319;28;20044;-62
2022/06/26 02:49:46;;;;;;;10.93;4.97;;;;;;;;;;5034193;28;20043;-62
2022/06/26 02:52:14;;;;;;;10.27;4.78;;;;;;;;;;5034362;28;20041;-62
2022/06/26 02:54:41;;;;;;;6.82;4.60;;;;;;;;;;5034138;28;20076;-62
2022/06/26 02:57:09;;;;;;;9.50;4.72;;;;;;;;;;5034217;28;20075;-62
2022/06/26 02:59:36;;;;;;;11.82;5.00;;;;;;;;;;5034305;28;20045;-64
2022/06/26 03:02:06;;;;;;;8.25;4.70;;;;;;;;;;5034239;28;20067;-62
2022/06/26 03:04:44;;;;;;;12.30;4.72;;;;;;;;;;5034509;28;20049;-62
2022/06/26 03:07:16;;;;;;;12.15;4.40;;;;;;;;;;5034158;28;20107;-62
2022/06/26 03:09:44;;;;;;;8.73;4.68;;;;;;;;;;5034004;28;20044;-62
2022/06/26 03:12:12;;;;;;;11.23;5.05;;;;;;;;;;5034559;28;20095;-62
2022/06/26 03:14:42;;;;;;;8.30;4.40;;;;;;;;;;5034157;28;20060;-63
2022/06/26 03:17:09;;;;;;;7.40;4.57;;;;;;;;;;5033974;28;20466;-62
2022/06/26 03:19:37;;;;;;;9.38;4.53;;;;;;;;;;5033953;28;20049;-62
2022/06/26 03:22:05;;;;;;;9.88;4.57;;;;;;;;;;5035069;28;20049;-62
2022/06/26 03:24:33;;;;;;;11.10;4.55;;;;;;;;;;5037776;28;20080;-62
2022/06/26 03:27:01;;;;;;;10.93;4.65;;;;;;;;;;5037784;28;20513;-62
2022/06/26 03:29:31;;;;;;;8.38;4.20;;;;;;;;;;5037718;28;20041;-62
2022/06/26 03:32:02;;;;;;;8.65;4.20;;;;;;;;;;5037657;28;20045;-62
2022/06/26 03:34:32;;;;;;;10.80;4.82;;;;;;;;;;5021929;28;20064;-64
2022/06/26 03:37:01;;;;;;;9.07;4.85;;;;;;;;;;5037425;28;20503;-63
2022/06/26 03:39:28;;;;;;;9.70;5.40;;;;;;;;;;5037350;28;20160;-62
2022/06/26 03:42:02;;;;;;;7.82;4.63;;;;;;;;;;5037629;28;20059;-62
2022/06/26 03:44:35;;;;;;;8.07;5.25;;;;;;;;;;5037487;28;20049;-62
2022/06/26 03:47:02;;;;;;;11.13;5.97;;;;;;;;;;5037675;28;20103;-62
2022/06/26 03:49:31;;;;;;;11.60;4.95;;;;;;;;;;5037347;28;20041;-63
2022/06/26 03:52:03;;;;;;;11.95;5.18;;;;;;;;;;5038177;28;20053;-62
2022/06/26 03:54:31;;;;;;;11.25;5.95;;;;;;;;;;5036903;28;20037;-63
2022/06/26 03:56:59;;;;;;;7.63;4.47;;;;;;;;;;5036838;28;20487;-64
2022/06/26 03:59:29;;;;;;;13.07;9.70;;;;;;;;;;5036927;28;20053;-67
2022/06/26 04:01:59;;;;;;;9.27;5.30;;;;;;;;;;5036963;28;20399;-62
2022/06/26 04:04:29;;;;;;;13.75;6.90;;;;;;;;;;5036946;28;20495;-61
2022/06/26 04:06:57;;;;;;;17.08;9.75;;;;;;;;;;5037000;28;20044;-61
2022/06/26 04:09:35;;;;;;;14.45;7.53;;;;;;;;;;5037113;28;20048;-61
2022/06/26 04:12:03;;;;;;;11.82;7.18;;;;;;;;;;5037307;28;20040;-62
2022/06/26 04:14:35;;;;;;;13.05;7.18;;;;;;;;;;5036922;28;20099;-61
2022/06/26 04:17:03;;;;;;;14.27;8.25;;;;;;;;;;5036862;28;20407;-62
2022/06/26 04:19:30;;;;;;;16.50;10.70;;;;;;;;;;5036780;28;20052;-61
2022/06/26 04:21:58;;;;;;;18.92;8.95;;;;;;;;;;5036634;28;20041;-62
2022/06/26 04:24:26;;;;;;;19.48;10.10;;;;;;;;;;5036906;28;20045;-62
2022/06/26 04:26:54;;;;;;;17.83;9.45;;;;;;;;;;5036530;28;20053;-62
2022/06/26 04:29:22;;;;;;;10.50;7.07;;;;;;;;;;5036608;28;20128;-62
2022/06/26 04:31:49;;;;;;;10.10;6.80;;;;;;;;;;5036592;28;20051;-61
2022/06/26 04:34:17;;;;;;;10.73;6.65;;;;;;;;;;5036539;28;20045;-61
2022/06/26 04:36:45;;;;;;;8.68;6.25;;;;;;;;;;5036764;28;20053;-61
2022/06/26 04:39:19;;;;;;;9.02;6.55;;;;;;;;;;5036237;28;20407;-61
2022/06/26 04:41:49;;;;;;;9.13;7.70;;;;;;;;;;5054280;28;20116;-62
2022/06/26 04:44:18;;;;;;;10.13;6.70;;;;;;;;;;5036314;28;20049;-61
2022/06/26 04:46:52;;;;;;;10.30;7.80;;;;;;;;;;5027138;28;20442;-61
2022/06/26 04:49:22;;;;;;;9.32;6.38;;;;;;;;;;5000621;28;20103;-61
2022/06/26 04:51:50;;;;;;;11.05;7.30;;;;;;;;;;5016295;28;20042;-61
2022/06/26 04:54:24;;;;;;;8.45;6.00;;;;;;;;;;5016406;28;20057;-61
2022/06/26 04:56:52;;;;;;;10.15;6.05;;;;;;;;;;5016196;28;20037;-61
2022/06/26 04:59:20;;;;;;;11.82;6.07;;;;;;;;;;5016112;28;20087;-62
2022/06/26 05:01:48;;;;;;;12.88;6.30;;;;;;;;;;5016108;28;20522;-62
2022/06/26 05:04:36;;;;;;;12.40;6.22;;;;;;;;;;5002970;28;20111;-62
2022/06/26 05:07:24;;;;;;;10.43;5.50;;;;;;;;;;5033331;28;20487;-62
2022/06/26 05:09:51;;;;;;;8.45;5.78;;;;;;;;;;5016200;28;20107;-62
2022/06/26 05:12:19;;;;;;;11.55;6.10;;;;;;;;;;5015899;28;20049;-59
2022/06/26 05:15:25;;;;;;;11.52;6.00;;;;;;;;;;4992201;28;20048;-59
2022/06/26 05:17:53;;;;;;;8.90;5.65;;;;;;;;;;4991763;28;20043;-59
2022/06/26 05:20:20;;;;;;;9.40;5.28;;;;;;;;;;5005223;28;20434;-60
2022/06/26 05:22:48;;;;;;;9.10;6.85;;;;;;;;;;5033584;28;20042;-60
2022/06/26 05:25:17;;;;;;;14.80;5.88;;;;;;;;;;5015686;28;20388;-60
2022/06/26 05:27:46;;;;;;;8.05;5.95;;;;;;;;;;5015775;28;20050;-60
2022/06/26 05:30:13;;;;;;;9.23;5.10;;;;;;;;;;5015650;28;20041;-59
2022/06/26 05:32:42;;;;;;;10.55;5.28;;;;;;;;;;5015711;28;20052;-59
2022/06/26 05:35:15;;;;;;;8.52;5.57;;;;;;;;;;5015484;28;20075;-60
2022/06/26 05:37:43;;;;;;;8.68;5.53;;;;;;;;;;5015675;28;20132;-60
2022/06/26 05:40:11;;;;;;;7.75;5.22;;;;;;;;;;5015391;28;20145;-61
2022/06/26 05:42:41;;;;;;;9.15;5.53;;;;;;;;;;5029627;28;20069;-61
2022/06/26 05:45:10;;;;;;;8.23;4.80;;;;;;;;;;5034469;28;20084;-60
2022/06/26 05:47:38;;;;;;;9.25;5.50;;;;;;;;;;5034994;28;20037;-60
2022/06/26 05:50:31;;;;;;;6.85;5.15;;;;;;;;;;5034993;28;20499;-61
2022/06/26 05:53:16;;;;;;;12.85;5.95;;;;;;;;;;5052910;28;20045;-61
2022/06/26 05:56:02;;;;;;;16.60;9.52;;;;;;;;;;5052919;28;20555;-63
2022/06/26 05:58:50;;;;;;;14.65;7.40;;;;;;;;;;5034918;28;20047;-61
2022/06/26 06:01:43;;;;;;;8.90;5.05;;;;;;;;;;5034852;28;20056;-61
2022/06/26 06:04:16;;;;;;;8.45;5.00;;;;;;;;;;5025671;28;20420;-62
2022/06/26 06:06:44;;;;;;;13.02;5.45;;;;;;;;;;5042850;28;20080;-62
2022/06/26 06:09:13;;;;;;;8.52;5.68;;;;;;;;;;5020074;28;20141;-61
2022/06/26 06:11:40;;;;;;;14.18;7.80;;;;;;;;;;5015102;28;20508;-66
2022/06/26 06:14:08;;;;;;;15.27;8.30;;;;;;;;;;5032673;28;20049;-63
2022/06/26 06:16:35;;;;;;;11.50;8.38;;;;;;;;;;5015058;28;20124;-63
2022/06/26 06:19:04;;;;;;;8.65;5.50;;;;;;;;;;5014785;28;20096;-63
2022/06/26 06:21:36;;;;;;;10.80;5.72;;;;;;;;;;5014883;28;20129;-65
2022/06/26 06:24:04;;;;;;;10.85;5.20;;;;;;;;;;5015002;28;20049;-62
2022/06/26 06:26:32;;;;;;;10.88;5.28;;;;;;;;;;5014882;28;20134;-62
2022/06/26 06:29:10;;;;;;;7.68;5.53;;;;;;;;;;5014767;28;20499;-62
2022/06/26 06:31:38;;;;;;;9.38;5.60;;;;;;;;;;5014774;28;20045;-62
2022/06/26 06:34:08;;;;;;;7.20;5.00;;;;;;;;;;5014722;28;20071;-64
2022/06/26 06:36:37;;;;;;;6.75;4.72;;;;;;;;;;5014686;28;20136;-62
2022/06/26 06:39:07;;;;;;;6.95;4.47;;;;;;;;;;5014630;28;20061;-61
2022/06/26 06:41:35;;;;;;;7.03;4.70;;;;;;;;;;5014638;28;20407;-63
2022/06/26 06:44:05;;;;;;;11.02;5.15;;;;;;;;;;5014554;28;20053;-61
2022/06/26 06:46:52;;;;;;;6.03;4.70;;;;;;;;;;5014594;28;20052;-62
2022/06/26 06:49:27;;;;;;;10.65;5.28;;;;;;;;;;5014510;28;20140;-60
2022/06/26 06:51:56;;;;;;;10.10;5.70;;;;;;;;;;5015243;28;20329;-60
2022/06/26 06:54:24;;;;;;;12.18;5.47;;;;;;;;;;5052404;28;20036;-61
2022/06/26 06:56:51;;;;;;;6.25;4.65;;;;;;;;;;5055136;28;20040;-61
2022/06/26 06:59:19;;;;;;;9.80;5.80;;;;;;;;;;5057097;28;20067;-61
2022/06/26 07:01:47;;;;;;;8.68;4.63;;;;;;;;;;5038064;28;20049;-61
2022/06/26 07:04:15;;;;;;;10.40;6.30;;;;;;;;;;5037275;28;20049;-61
2022/06/26 07:06:44;;;;;;;10.25;4.82;;;;;;;;;;5054898;28;20048;-61
2022/06/26 07:09:12;;;;;;;7.68;5.63;;;;;;;;;;5059642;28;20040;-61
2022/06/26 07:11:39;;;;;;;8.43;6.18;;;;;;;;;;5057669;28;20444;-60
2022/06/26 07:14:07;;;;;;;10.35;5.90;;;;;;;;;;5054952;28;20127;-62
2022/06/26 07:16:35;;;;;;;11.50;6.38;;;;;;;;;;5037617;28;20035;-61
2022/06/26 07:19:04;;;;;;;7.28;6.13;;;;;;;;;;5037270;28;20480;-60
2022/06/26 07:21:31;;;;;;;11.65;6.35;;;;;;;;;;5037736;28;20037;-60
2022/06/26 07:24:01;;;;;;;11.20;5.85;;;;;;;;;;5021305;28;20457;-60
2022/06/26 07:26:51;;;;;;;15.90;9.32;;;;;;;;;;5037337;28;20041;-62
2022/06/26 07:29:19;;;;;;;19.52;9.43;;;;;;;;;;5036972;28;20076;-60
2022/06/26 07:31:46;;;;;;;15.73;9.57;;;;;;;;;;5037404;28;20037;-60
2022/06/26 07:34:18;;;;;;;13.30;7.25;;;;;;;;;;5037104;28;20045;-61
2022/06/26 07:36:47;;;;;;;26.15;11.75;;;;;;;;;;5037165;28;20472;-62
2022/06/26 07:39:16;;;;;;;20.52;10.82;;;;;;;;;;5037176;28;20103;-62
2022/06/26 07:41:45;;;;;;;14.30;5.53;;;;;;;;;;5037117;28;20041;-62
2022/06/26 07:44:13;;;;;;;18.08;8.52;;;;;;;;;;5037147;28;20043;-62
2022/06/26 07:46:43;;;;;;;15.52;7.30;;;;;;;;;;5021014;28;20048;-63
2022/06/26 07:49:18;;;;;;;9.50;4.50;;;;;;;;;;5037070;28;20052;-63
2022/06/26 07:51:46;;;;;;;8.10;4.72;;;;;;;;;;5036921;28;20045;-63
2022/06/26 07:54:13;;;;;;;6.00;4.50;;;;;;;;;;5054812;28;20106;-63
2022/06/26 07:56:41;;;;;;;8.77;4.97;;;;;;;;;;5036509;28;20045;-65
2022/06/26 07:59:08;;;;;;;12.30;5.80;;;;;;;;;;5054425;28;20033;-62
2022/06/26 08:01:36;;;;;;;14.85;6.25;;;;;;;;;;5054814;28;20116;-62
2022/06/26 08:04:04;;;;;;;13.15;6.32;;;;;;;;;;5054531;28;20075;-62
2022/06/26 08:06:31;;;;;;;18.80;8.52;;;;;;;;;;5053515;28;20052;-64
2022/06/26 08:08:59;;;;;;;10.57;6.13;;;;;;;;;;5053353;28;20041;-62
2022/06/26 08:11:27;;;;;;;10.10;5.93;;;;;;;;;;5036911;28;20053;-62
2022/06/26 08:13:55;;;;;;;11.45;6.78;;;;;;;;;;5037287;28;20040;-62
2022/06/26 08:16:22;;;;;;;16.15;5.90;;;;;;;;;;5054796;28;20068;-62
2022/06/26 08:18:50;;;;;;;9.38;6.57;;;;;;;;;;5054876;28;20427;-62
2022/06/26 08:24:04;;;;;;;11.85;5.60;;;;;;;;;;5054467;28;20099;-63
2022/06/26 08:26:31;;;;;;;15.40;6.82;;;;;;;;;;5054371;28;20052;-63
2022/06/26 08:28:59;;;;;;;10.80;6.30;;;;;;;;;;5054155;28;20495;-63
2022/06/26 08:31:26;;;;;;;13.57;7.30;;;;;;;;;;5054257;28;20434;-63
2022/06/26 08:33:54;;;;;;;18.33;14.48;;;;;;;;;;5054138;28;20495;-63
2022/06/26 08:36:21;;;;;;;29.85;21.90;;;;;;;;;;5054384;28;20390;-63
2022/06/26 08:38:49;;;;;;;24.80;14.10;;;;;;;;;;5053826;28;20107;-63
2022/06/26 08:41:17;;;;;;;21.48;7.15;;;;;;;;;;5054205;28;20373;-63
2022/06/26 08:43:46;;;;;;;16.25;7.60;;;;;;;;;;5054137;28;20041;-63
2022/06/26 08:46:14;;;;;;;13.90;7.20;;;;;;;;;;5036248;28;20037;-63
2022/06/26 08:48:47;;;;;;;15.57;6.38;;;;;;;;;;5054088;28;20041;-63
2022/06/26 08:51:15;;;;;;;14.93;7.00;;;;;;;;;;5054141;28;20048;-63
2022/06/26 08:53:43;;;;;;;15.60;8.27;;;;;;;;;;5054111;28;20502;-63
2022/06/26 08:56:11;;;;;;;16.13;7.78;;;;;;;;;;5054231;28;20040;-63
2022/06/26 08:58:38;;;;;;;18.42;7.47;;;;;;;;;;5053883;28;20479;-63
2022/06/26 09:01:07;;;;;;;12.52;8.73;;;;;;;;;;5053960;28;20041;-63
2022/06/26 09:03:35;;;;;;;33.10;16.98;;;;;;;;;;5053780;28;20454;-63
2022/06/26 09:06:03;;;;;;;20.33;7.80;;;;;;;;;;5054224;28;20037;-63
2022/06/26 09:08:31;;;;;;;22.10;11.00;;;;;;;;;;5036068;28;20490;-63
2022/06/26 09:10:59;;;;;;;17.88;9.10;;;;;;;;;;5053917;28;20505;-63
2022/06/26 09:13:40;;;;;;;18.27;7.82;;;;;;;;;;5053784;28;20041;-63
2022/06/26 09:16:08;;;;;;;15.77;8.45;;;;;;;;;;5053690;28;20067;-63
2022/06/26 09:18:40;;;;;;;16.02;7.70;;;;;;;;;;5053419;28;20434;-63
2022/06/26 09:21:09;;;;;;;19.77;9.10;;;;;;;;;;5052801;28;20079;-63
2022/06/26 09:23:37;;;;;;;17.65;7.85;;;;;;;;;;5053676;28;20037;-63
2022/06/26 09:26:05;;;;;;;16.75;8.75;;;;;;;;;;5053399;28;20069;-63
2022/06/26 09:28:33;;;;;;;17.60;10.15;;;;;;;;;;5053504;28;20073;-63
2022/06/26 09:31:04;;;;;;;16.77;7.35;;;;;;;;;;5053220;28;20120;-62
2022/06/26 09:33:36;;;;;;;11.50;7.63;;;;;;;;;;5053136;28;20060;-63
2022/06/26 09:36:05;;;;;;;12.80;7.43;;;;;;;;;;5053159;28;20044;-63
2022/06/26 09:38:34;;;;;;;11.27;7.32;;;;;;;;;;5053133;28;20117;-62
2022/06/26 09:41:03;;;;;;;16.20;8.20;;;;;;;;;;5052907;28;20033;-62
2022/06/26 09:43:33;;;;;;;12.75;8.73;;;;;;;;;;5053069;28;20124;-62
2022/06/26 09:46:02;;;;;;;11.63;8.23;;;;;;;;;;5053097;28;20045;-62
2022/06/26 09:48:30;;;;;;;13.65;8.95;;;;;;;;;;5053001;28;20116;-62
2022/06/26 09:50:58;;;;;;;21.48;14.35;;;;;;;;;;5047770;28;20075;-63
2022/06/26 09:53:27;;;;;;;32.38;25.20;;;;;;;;;;5032576;28;20099;-62
2022/06/26 09:55:55;;;;;;;16.98;11.75;;;;;;;;;;5049843;28;20124;-62
2022/06/26 09:58:23;;;;;;;12.85;8.65;;;;;;;;;;5034911;28;20048;-63
2022/06/26 10:06:25;;;;;;;14.07;9.77;;;;;;;;;;5044180;28;20045;-65
2022/06/26 10:08:54;;;;;;;15.88;10.63;;;;;;;;;;5050935;28;20051;-64
2022/06/26 10:11:27;;;;;;;18.70;10.93;;;;;;;;;;5033730;28;20056;-64
2022/06/26 10:13:57;;;;;;;10.63;9.02;;;;;;;;;;5033721;28;20135;-62
2022/06/26 10:16:34;;;;;;;14.80;11.13;;;;;;;;;;5052510;28;20128;-62
2022/06/26 10:19:14;;;;;;;16.80;11.30;;;;;;;;;;5052291;28;20037;-62
2022/06/26 10:21:42;;;;;;;16.73;10.45;;;;;;;;;;5052552;28;20076;-64
2022/06/26 10:24:09;;;;;;;18.15;10.60;;;;;;;;;;5052307;28;20043;-62
2022/06/26 10:26:37;;;;;;;13.25;9.85;;;;;;;;;;5034703;28;20049;-62
2022/06/26 10:29:09;;;;;;;16.85;11.52;;;;;;;;;;5034751;28;20037;-63
2022/06/26 10:31:49;;;;;;;14.88;9.98;;;;;;;;;;5052093;28;20120;-63
2022/06/26 10:34:24;;;;;;;15.13;8.98;;;;;;;;;;5034385;28;20454;-63
2022/06/26 10:37:07;;;;;;;14.52;8.75;;;;;;;;;;5052287;28;20083;-63
2022/06/26 10:39:42;;;;;;;13.80;9.35;;;;;;;;;;5051688;28;20057;-62
2022/06/26 10:45:09;;;;;;;13.82;9.13;;;;;;;;;;5051673;28;20083;-63
2022/06/26 10:47:48;;;;;;;18.75;9.18;;;;;;;;;;5051645;28;20068;-62
2022/06/26 10:50:45;;;;;;;10.23;8.25;;;;;;;;;;5051628;28;20045;-62
2022/06/26 10:53:13;;;;;;;13.10;8.63;;;;;;;;;;5031662;28;20061;-62
2022/06/26 10:55:42;;;;;;;11.65;8.73;;;;;;;;;;5051821;28;20072;-62
2022/06/26 10:58:09;;;;;;;12.85;9.45;;;;;;;;;;5051363;28;20041;-62
2022/06/26 11:00:37;;;;;;;11.95;9.27;;;;;;;;;;5051190;28;20048;-61
2022/06/26 11:03:13;;;;;;;11.85;10.20;;;;;;;;;;5051657;28;20116;-62
2022/06/26 11:05:49;;;;;;;13.90;11.40;;;;;;;;;;5051596;28;20120;-62
2022/06/26 11:08:30;;;;;;;19.88;15.60;;;;;;;;;;5051543;28;20037;-62
2022/06/26 11:10:59;;;;;;;17.20;10.82;;;;;;;;;;5051364;28;20041;-62
2022/06/26 11:13:26;;;;;;;15.38;10.77;;;;;;;;;;5051208;28;20041;-62
2022/06/26 11:15:54;;;;;;;19.50;11.73;;;;;;;;;;5051133;28;20049;-62
2022/06/26 11:18:21;;;;;;;14.70;11.50;;;;;;;;;;5051375;28;20194;-62
2022/06/26 11:20:50;;;;;;;18.42;16.48;;;;;;;;;;5051117;28;20072;-62
2022/06/26 11:23:19;;;;;;;27.92;23.48;;;;;;;;;;5051542;28;20406;-62
2022/06/26 11:25:48;;;;;;;13.82;10.45;;;;;;;;;;5050886;28;20045;-62
2022/06/26 11:28:16;;;;;;;12.48;10.38;;;;;;;;;;5051161;28;20048;-62
2022/06/26 11:30:45;;;;;;;17.17;10.38;;;;;;;;;;5050979;28;20041;-62
2022/06/26 11:33:13;;;;;;;14.52;10.80;;;;;;;;;;5051074;28;20479;-62
2022/06/26 11:35:40;;;;;;;13.55;10.15;;;;;;;;;;5051373;28;20045;-62
2022/06/26 11:38:09;;;;;;;11.40;10.20;;;;;;;;;;5051063;28;20295;-62
2022/06/26 11:40:37;;;;;;;12.10;10.18;;;;;;;;;;5050899;28;20068;-62
2022/06/26 11:43:04;;;;;;;12.70;10.75;;;;;;;;;;5052063;28;20360;-62
2022/06/26 11:45:32;;;;;;;16.77;10.85;;;;;;;;;;5054882;28;20041;-62
2022/06/26 11:48:00;;;;;;;13.38;10.00;;;;;;;;;;5054665;28;20041;-62
2022/06/26 11:50:32;;;;;;;12.27;10.30;;;;;;;;;;5037215;28;20049;-63
2022/06/26 11:53:00;;;;;;;13.60;10.43;;;;;;;;;;5054746;28;20041;-63
2022/06/26 11:55:27;;;;;;;12.70;10.50;;;;;;;;;;5054316;28;20041;-63
2022/06/26 11:57:55;;;;;;;14.13;10.80;;;;;;;;;;5054759;28;20091;-63
2022/06/26 12:00:24;;;;;;;12.90;10.38;;;;;;;;;;5054060;28;20065;-63
2022/06/26 12:02:51;;;;;;;12.90;10.35;;;;;;;;;;5054872;28;20049;-63
2022/06/26 12:05:30;;;;;;;15.70;11.45;;;;;;;;;;5054288;28;20048;-63
2022/06/26 12:07:58;;;;;;;12.75;10.70;;;;;;;;;;5054245;28;20037;-62
2022/06/26 12:10:46;;;;;;;14.95;11.32;;;;;;;;;;5054281;28;20037;-62
2022/06/26 12:13:25;;;;;;;14.43;11.48;;;;;;;;;;5054445;28;20049;-63
2022/06/26 12:15:53;;;;;;;13.82;10.73;;;;;;;;;;5054156;28;20043;-62
2022/06/26 12:18:20;;;;;;;13.73;11.80;;;;;;;;;;5054367;28;20383;-62
2022/06/26 12:20:49;;;;;;;15.18;11.80;;;;;;;;;;5053782;28;20530;-63
2022/06/26 12:23:17;;;;;;;16.63;11.40;;;;;;;;;;5054360;28;20044;-63
2022/06/26 12:25:47;;;;;;;14.70;10.60;;;;;;;;;;5053710;28;20481;-62
2022/06/26 12:28:24;;;;;;;14.48;11.10;;;;;;;;;;5053924;28;20045;-63
2022/06/26 12:30:52;;;;;;;13.98;11.18;;;;;;;;;;5054080;28;20383;-64
2022/06/26 12:33:19;;;;;;;15.25;10.70;;;;;;;;;;5054054;28;20067;-62
2022/06/26 12:35:47;;;;;;;14.55;11.00;;;;;;;;;;5054130;28;20052;-63
2022/06/26 12:38:21;;;;;;;13.60;11.48;;;;;;;;;;5053784;28;20049;-61
2022/06/26 12:40:48;;;;;;;13.75;12.23;;;;;;;;;;5053289;28;20083;-61
2022/06/26 12:43:17;;;;;;;17.00;12.13;;;;;;;;;;5035818;28;20033;-62
2022/06/26 12:45:44;;;;;;;17.00;12.30;;;;;;;;;;5053790;28;20095;-61
2022/06/26 12:48:12;;;;;;;15.77;12.02;;;;;;;;;;5053250;28;20033;-62
2022/06/26 12:50:40;;;;;;;14.45;12.82;;;;;;;;;;5047817;28;20041;-62
2022/06/26 12:53:09;;;;;;;16.02;12.52;;;;;;;;;;5053329;28;20047;-62
2022/06/26 12:55:37;;;;;;;19.70;13.73;;;;;;;;;;5053396;28;20041;-63
2022/06/26 12:58:09;;;;;;;14.88;12.45;;;;;;;;;;5053648;28;20124;-63
2022/06/26 13:00:36;;;;;;;18.63;13.15;;;;;;;;;;5053346;28;20079;-63
2022/06/26 13:03:04;;;;;;;13.95;10.88;;;;;;;;;;5053311;28;20041;-62
2022/06/26 13:05:32;;;;;;;13.45;11.30;;;;;;;;;;5053303;28;20090;-64
2022/06/26 13:07:59;;;;;;;17.88;11.88;;;;;;;;;;5053083;28;20103;-62
2022/06/26 13:10:27;;;;;;;15.13;11.80;;;;;;;;;;5052614;28;20098;-62
2022/06/26 13:12:54;;;;;;;11.90;10.57;;;;;;;;;;5052323;28;20434;-62
2022/06/26 13:15:22;;;;;;;15.13;11.98;;;;;;;;;;5052733;28;20088;-62
2022/06/26 13:17:49;;;;;;;12.82;10.60;;;;;;;;;;5052310;28;20059;-63
2022/06/26 13:20:24;;;;;;;12.55;10.60;;;;;;;;;;5034038;28;20045;-63
2022/06/26 13:22:52;;;;;;;12.80;11.23;;;;;;;;;;5052183;28;20033;-63
2022/06/26 13:25:19;;;;;;;14.65;10.18;;;;;;;;;;5053128;28;20380;-62
2022/06/26 13:27:47;;;;;;;13.07;9.77;;;;;;;;;;5029097;28;20052;-63
2022/06/26 13:30:14;;;;;;;12.90;9.25;;;;;;;;;;5052857;28;20033;-64
2022/06/26 13:32:42;;;;;;;13.00;8.90;;;;;;;;;;5028881;28;20060;-61
2022/06/26 13:35:10;;;;;;;10.23;8.63;;;;;;;;;;5052734;28;20455;-62
2022/06/26 13:37:40;;;;;;;10.77;8.45;;;;;;;;;;5052540;28;20033;-62
2022/06/26 13:40:08;;;;;;;14.90;7.10;;;;;;;;;;5051960;28;20051;-61
2022/06/26 13:42:35;;;;;;;12.07;6.65;;;;;;;;;;5058562;28;20033;-61
2022/06/26 13:45:03;;;;;;;9.48;6.15;;;;;;;;;;5052633;28;20124;-64
2022/06/26 13:47:31;;;;;;;7.47;6.57;;;;;;;;;;5052561;28;20048;-63
2022/06/26 13:49:59;;;;;;;11.40;7.22;;;;;;;;;;5052732;28;20479;-62
2022/06/26 13:52:26;;;;;;;6.63;5.35;;;;;;;;;;5052737;28;20068;-62
2022/06/26 13:54:54;;;;;;;8.55;6.40;;;;;;;;;;5052214;28;20049;-61
2022/06/26 13:57:21;;;;;;;8.75;5.60;;;;;;;;;;5052387;28;20067;-61
2022/06/26 13:59:49;;;;;;;6.53;5.25;;;;;;;;;;5052381;28;20044;-61
2022/06/26 14:02:16;;;;;;;7.90;5.85;;;;;;;;;;5052344;28;20049;-61
2022/06/26 14:04:44;;;;;;;7.25;4.95;;;;;;;;;;5066743;28;20098;-61
2022/06/26 14:07:11;;;;;;;7.45;5.70;;;;;;;;;;5051653;28;20223;-61
2022/06/26 14:09:40;;;;;;;8.75;5.80;;;;;;;;;;5052296;28;20109;-61
2022/06/26 14:12:10;;;;;;;7.22;5.70;;;;;;;;;;5038499;28;20041;-61
2022/06/26 14:14:37;;;;;;;9.80;5.13;;;;;;;;;;5052101;28;20514;-61
2022/06/26 14:17:05;;;;;;;7.45;5.18;;;;;;;;;;5052130;28;20108;-61
2022/06/26 14:19:32;;;;;;;9.63;6.20;;;;;;;;;;5052288;28;20043;-61
2022/06/26 14:27:40;;;;;;;7.10;4.80;;;;;;;;;;5050817;28;20402;-62
2022/06/26 14:30:08;;;;;;;9.93;7.45;;;;;;;;;;5053193;28;20394;-62
2022/06/26 14:32:36;;;;;;;11.88;8.60;;;;;;;;;;5051234;28;20501;-61
2022/06/26 14:35:05;;;;;;;12.48;8.93;;;;;;;;;;5051165;28;20045;-62
2022/06/26 14:37:32;;;;;;;10.55;8.70;;;;;;;;;;5051932;28;20029;-62
2022/06/26 14:40:01;;;;;;;14.90;9.10;;;;;;;;;;5051452;28;20056;-62
2022/06/26 14:42:29;;;;;;;12.77;7.50;;;;;;;;;;5044641;28;20037;-61
2022/06/26 14:44:57;;;;;;;10.30;6.95;;;;;;;;;;5052044;28;20052;-64
2022/06/26 14:47:24;;;;;;;13.80;8.48;;;;;;;;;;5052075;28;20557;-62
2022/06/26 14:49:52;;;;;;;11.35;6.82;;;;;;;;;;5051505;28;20049;-62
2022/06/26 14:52:20;;;;;;;14.02;11.32;;;;;;;;;;5051942;28;20119;-62
2022/06/26 14:54:48;;;;;;;13.85;10.52;;;;;;;;;;5050942;28;20371;-63
2022/06/26 14:57:16;;;;;;;24.17;21.10;;;;;;;;;;5051899;28;20052;-64
2022/06/26 14:59:43;;;;;;;21.02;16.63;;;;;;;;;;5048466;28;20041;-62
2022/06/26 15:02:12;;;;;;;8.60;5.75;;;;;;;;;;5051258;28;20049;-64
2022/06/26 15:04:40;;;;;;;9.95;5.72;;;;;;;;;;5057518;28;20082;-63
2022/06/26 15:07:08;;;;;;;10.55;5.50;;;;;;;;;;5058930;28;20049;-63